createdAt,value
2023-02-25T00:00:31.050Z,90.82
2023-02-25T00:02:59.080Z,90.63
2023-02-25T00:05:26.705Z,89.64
2023-02-25T00:07:53.911Z,90.49
2023-02-25T00:10:20.512Z,89.44
2023-02-25T00:12:47.177Z,89.28
2023-02-25T00:15:13.758Z,88.87
2023-02-25T00:17:40.234Z,88.68
2023-02-25T00:20:12.390Z,88.42
2023-02-25T00:22:39.203Z,88.63
2023-02-25T00:25:06.267Z,87.91
2023-02-25T00:27:32.810Z,87.98
2023-02-25T00:29:59.347Z,88.19
2023-02-25T00:32:26.373Z,87.35
2023-02-25T00:34:53.296Z,87.40
2023-02-25T00:37:19.890Z,87.11
2023-02-25T00:39:46.738Z,87.54
2023-02-25T00:42:18.949Z,87.30
2023-02-25T00:44:47.700Z,86.83
2023-02-25T00:47:15.620Z,86.64
2023-02-25T00:49:42.277Z,86.63
2023-02-25T00:52:08.811Z,86.67
2023-02-25T00:54:35.556Z,86.51
2023-02-25T00:57:02.201Z,86.14
2023-02-25T00:59:28.747Z,86.07
2023-02-25T01:01:55.276Z,86.25
2023-02-25T01:04:21.880Z,86.24
2023-02-25T01:06:48.445Z,86.90
2023-02-25T01:09:15.296Z,87.29
2023-02-25T01:11:45.617Z,87.40
2023-02-25T01:14:15.914Z,87.39
2023-02-25T01:16:44.057Z,88.31
2023-02-25T01:19:14.941Z,88.79
2023-02-25T01:21:44.040Z,88.33
2023-02-25T01:24:22.219Z,88.56
2023-02-25T01:26:51.270Z,89.01
2023-02-25T01:29:28.512Z,88.81
2023-02-25T01:31:58.556Z,88.77
2023-02-25T01:34:26.053Z,89.39
2023-02-25T01:36:52.966Z,88.56
2023-02-25T01:39:21.297Z,88.95
2023-02-25T01:41:50.994Z,89.08
2023-02-25T01:44:22.337Z,89.18
2023-02-25T01:46:51.283Z,89.67
2023-02-25T01:49:29.819Z,89.65
2023-02-25T01:52:06.647Z,89.55
2023-02-25T01:54:35.316Z,89.81
2023-02-25T01:57:06.416Z,90.58
2023-02-25T01:59:34.024Z,90.17
2023-02-25T02:02:01.337Z,89.74
2023-02-25T02:04:28.899Z,89.89
2023-02-25T02:06:56.451Z,90.03
2023-02-25T02:09:27.177Z,90.21
2023-02-25T02:11:56.309Z,89.60
2023-02-25T02:14:27.846Z,89.77
2023-02-25T02:17:13.186Z,89.64
2023-02-25T02:19:49.808Z,89.88
2023-02-25T02:22:32.515Z,89.48
2023-02-25T02:25:05.306Z,89.65
2023-02-25T02:28:03.092Z,89.87
2023-02-25T02:30:51.613Z,90.70
2023-02-25T02:33:49.162Z,91.20
2023-02-25T02:36:46.665Z,90.82
2023-02-25T02:39:22.128Z,91.19
2023-02-25T02:42:21.480Z,91.64
2023-02-25T02:44:58.063Z,91.88
2023-02-25T02:47:45.694Z,92.40
2023-02-25T02:50:18.798Z,92.61
2023-02-25T02:52:51.159Z,92.22
2023-02-25T02:55:25.796Z,92.56
2023-02-25T02:58:01.095Z,92.74
2023-02-25T03:00:35.151Z,93.07
2023-02-25T03:03:13.431Z,93.05
2023-02-25T03:05:42.709Z,92.51
2023-02-25T03:08:29.440Z,92.85
2023-02-25T03:10:55.880Z,92.67
2023-02-25T03:13:22.501Z,92.93
2023-02-25T03:15:50.096Z,92.61
2023-02-25T03:18:29.843Z,92.86
2023-02-25T03:21:00.189Z,92.64
2023-02-25T03:23:31.168Z,91.99
2023-02-25T03:26:28.369Z,91.42
2023-02-25T03:28:55.004Z,91.39
2023-02-25T03:31:34.953Z,91.19
2023-02-25T03:34:09.484Z,91.00
2023-02-25T03:36:45.327Z,90.96
2023-02-25T03:39:20.891Z,90.15
2023-02-25T03:41:59.220Z,90.62
2023-02-25T03:44:37.393Z,90.00
2023-02-25T03:47:07.964Z,89.76
2023-02-25T03:49:43.993Z,89.90
2023-02-25T03:52:16.960Z,88.94
2023-02-25T03:54:43.650Z,89.47
2023-02-25T03:57:10.242Z,88.59
2023-02-25T03:59:37.012Z,88.75
2023-02-25T04:02:03.840Z,88.58
2023-02-25T04:04:30.450Z,88.16
2023-02-25T04:06:57.039Z,88.17
2023-02-25T04:09:23.574Z,88.11
2023-02-25T04:11:50.069Z,88.69
2023-02-25T04:14:18.306Z,88.86
2023-02-25T04:16:44.936Z,88.81
2023-02-25T04:19:11.453Z,87.86
2023-02-25T04:21:39.348Z,88.04
2023-02-25T04:24:06.826Z,87.50
2023-02-25T04:26:34.474Z,86.98
2023-02-25T04:29:01.223Z,87.43
2023-02-25T04:31:28.132Z,87.09
2023-02-25T04:33:57.238Z,86.86
2023-02-25T04:36:35.512Z,86.59
2023-02-25T04:39:05.570Z,86.32
2023-02-25T04:41:35.055Z,86.58
2023-02-25T04:44:04.147Z,85.85
2023-02-25T04:46:31.738Z,85.91
2023-02-25T04:48:58.224Z,86.03
2023-02-25T04:51:24.782Z,85.94
2023-02-25T04:53:51.367Z,85.91
2023-02-25T04:56:17.955Z,85.76
2023-02-25T04:58:44.877Z,86.24
2023-02-25T05:01:12.335Z,85.62
2023-02-25T05:03:39.309Z,85.90
2023-02-25T05:06:06.908Z,85.52
2023-02-25T05:08:34.242Z,85.15
2023-02-25T05:11:01.851Z,85.04
2023-02-25T05:13:29.280Z,85.78
2023-02-25T05:16:13.262Z,85.41
2023-02-25T05:18:42.032Z,86.21
2023-02-25T05:21:12.128Z,86.30
2023-02-25T05:23:39.809Z,86.19
2023-02-25T05:26:06.589Z,85.93
2023-02-25T05:28:33.416Z,86.04
2023-02-25T05:31:00.215Z,85.87
2023-02-25T05:33:27.306Z,85.67
2023-02-25T05:35:53.759Z,85.28
2023-02-25T05:38:20.272Z,85.69
2023-02-25T05:40:46.777Z,86.24
2023-02-25T05:43:13.797Z,86.25
2023-02-25T05:45:40.429Z,85.50
2023-02-25T05:48:07.131Z,85.22
2023-02-25T05:50:41.096Z,84.87
2023-02-25T05:53:09.480Z,85.23
2023-02-25T05:55:41.807Z,85.70
2023-02-25T05:58:08.623Z,85.20
2023-02-25T06:00:36.540Z,85.55
2023-02-25T06:03:03.389Z,85.07
2023-02-25T06:05:30.371Z,85.47
2023-02-25T06:07:57.803Z,85.57
2023-02-25T06:10:25.771Z,85.67
2023-02-25T06:12:52.776Z,86.48
2023-02-25T06:15:19.619Z,85.83
2023-02-25T06:17:46.107Z,85.36
2023-02-25T06:20:15.592Z,86.16
2023-02-25T06:22:42.539Z,85.96
2023-02-25T06:25:09.303Z,85.75
2023-02-25T06:27:35.775Z,86.36
2023-02-25T06:30:03.302Z,85.71
2023-02-25T06:32:29.924Z,85.55
2023-02-25T06:34:56.841Z,86.00
2023-02-25T06:37:23.380Z,85.77
2023-02-25T06:39:49.881Z,85.34
2023-02-25T06:42:16.365Z,85.12
2023-02-25T06:44:42.979Z,85.20
2023-02-25T06:47:09.514Z,85.00
2023-02-25T06:49:36.052Z,84.99
2023-02-25T06:52:02.504Z,85.07
2023-02-25T06:54:29.064Z,85.77
2023-02-25T06:56:55.875Z,85.90
2023-02-25T06:59:22.628Z,85.31
2023-02-25T07:01:49.374Z,85.58
2023-02-25T07:04:18.599Z,85.42
2023-02-25T07:06:45.457Z,84.98
2023-02-25T07:09:12.081Z,88.23
2023-02-25T07:11:38.758Z,91.90
2023-02-25T07:14:06.480Z,93.91
2023-02-25T07:16:34.629Z,95.21
2023-02-25T07:19:04.690Z,96.14
2023-02-25T07:21:31.506Z,97.14
2023-02-25T07:23:58.729Z,97.12
2023-02-25T07:26:28.401Z,97.72
2023-02-25T07:28:56.517Z,97.01
2023-02-25T07:31:23.848Z,96.91
2023-02-25T07:33:50.897Z,97.73
2023-02-25T07:36:18.076Z,97.65
2023-02-25T07:38:44.972Z,97.52
2023-02-25T07:41:14.791Z,98.22
2023-02-25T07:43:41.692Z,98.39
2023-02-25T07:46:09.155Z,98.75
2023-02-25T07:48:36.012Z,98.19
2023-02-25T07:51:24.037Z,98.52
2023-02-25T07:53:53.312Z,97.87
2023-02-25T07:56:21.680Z,98.68
2023-02-25T07:58:48.596Z,98.48
2023-02-25T08:01:29.981Z,98.95
2023-02-25T08:03:59.559Z,99.46
2023-02-25T08:06:27.225Z,99.76
2023-02-25T08:08:55.368Z,99.11
2023-02-25T08:11:24.466Z,99.39
2023-02-25T08:13:51.194Z,99.76
2023-02-25T08:16:20.113Z,99.03
2023-02-25T08:18:47.264Z,98.27
2023-02-25T08:21:16.071Z,98.34
2023-02-25T08:23:42.564Z,98.77
2023-02-25T08:26:09.834Z,96.91
2023-02-25T08:28:37.505Z,96.15
2023-02-25T08:31:08.383Z,95.86
2023-02-25T08:33:35.256Z,95.09
2023-02-25T08:36:26.649Z,95.04
2023-02-25T08:38:54.878Z,94.27
2023-02-25T08:41:22.705Z,93.85
2023-02-25T08:43:52.087Z,93.10
2023-02-25T08:46:21.036Z,93.25
2023-02-25T08:48:52.184Z,93.57
2023-02-25T08:51:19.553Z,92.98
2023-02-25T08:53:46.261Z,92.87
2023-02-25T08:56:14.743Z,91.88
2023-02-25T08:58:41.622Z,91.25
2023-02-25T09:01:14.556Z,91.93
2023-02-25T09:03:51.354Z,91.94
2023-02-25T09:06:20.593Z,92.25
2023-02-25T09:08:47.168Z,91.63
2023-02-25T09:11:13.678Z,91.10
2023-02-25T09:13:40.161Z,90.61
2023-02-25T09:16:07.135Z,87.55
2023-02-25T09:18:33.761Z,85.38
2023-02-25T09:21:00.422Z,86.76
2023-02-25T09:23:27.070Z,86.01
2023-02-25T09:25:53.690Z,86.88
2023-02-25T09:28:20.293Z,85.88
2023-02-25T09:30:47.207Z,86.35
2023-02-25T09:33:14.576Z,85.64
2023-02-25T09:35:41.879Z,83.38
2023-02-25T09:38:08.417Z,83.58
2023-02-25T09:40:35.089Z,84.33
2023-02-25T09:43:06.412Z,83.31
2023-02-25T09:45:34.859Z,82.48
2023-02-25T09:48:06.572Z,83.36
2023-02-25T09:50:42.165Z,82.69
2023-02-25T09:53:27.876Z,82.35
2023-02-25T09:55:54.623Z,81.18
2023-02-25T09:58:30.902Z,81.15
2023-02-25T10:01:24.321Z,79.64
2023-02-25T10:04:18.834Z,81.74
2023-02-25T10:06:50.527Z,79.93
2023-02-25T10:09:45.501Z,81.37
2023-02-25T10:12:34.062Z,81.94
2023-02-25T10:15:19.357Z,81.86
2023-02-25T10:18:15.398Z,82.77
2023-02-25T10:20:48.171Z,81.21
2023-02-25T10:23:37.908Z,82.46
2023-02-25T10:26:18.109Z,81.66
2023-02-25T10:28:50.748Z,79.57
2023-02-25T10:31:23.453Z,80.78
2023-02-25T10:33:53.665Z,79.00
2023-02-25T10:36:28.007Z,78.50
2023-02-25T10:38:54.991Z,74.97
2023-02-25T10:41:25.369Z,76.28
2023-02-25T10:43:53.308Z,75.63
2023-02-25T10:46:34.382Z,74.88
2023-02-25T10:49:03.535Z,76.38
2023-02-25T10:51:30.135Z,75.71
2023-02-25T10:53:56.602Z,75.48
2023-02-25T10:56:26.559Z,74.85
2023-02-25T10:59:05.808Z,74.34
2023-02-25T11:01:40.044Z,73.52
2023-02-25T11:04:13.424Z,78.62
2023-02-25T11:06:43.105Z,81.84
2023-02-25T11:09:18.837Z,82.90
2023-02-25T11:12:01.064Z,83.76
2023-02-25T11:14:30.917Z,84.21
2023-02-25T11:17:14.142Z,85.61
2023-02-25T11:19:44.354Z,85.95
2023-02-25T11:22:24.519Z,84.43
2023-02-25T11:25:00.787Z,85.10
2023-02-25T11:27:37.180Z,86.19
2023-02-25T11:30:19.194Z,85.81
2023-02-25T11:32:55.276Z,85.69
2023-02-25T11:35:32.072Z,85.12
2023-02-25T11:38:12.353Z,82.82
2023-02-25T11:40:44.322Z,81.45
2023-02-25T11:43:19.778Z,80.25
2023-02-25T11:46:00.408Z,79.10
2023-02-25T11:48:46.057Z,75.50
2023-02-25T11:51:47.076Z,74.72
2023-02-25T11:54:29.473Z,71.79
2023-02-25T11:57:27.129Z,73.26
2023-02-25T12:00:12.048Z,70.66
2023-02-25T12:02:57.311Z,69.38
2023-02-25T12:06:06.153Z,67.21
2023-02-25T12:08:55.693Z,66.54
2023-02-25T12:11:37.064Z,64.69
2023-02-25T12:14:34.678Z,64.03
2023-02-25T12:17:07.047Z,64.11
2023-02-25T12:19:45.761Z,61.73
2023-02-25T12:22:14.762Z,64.88
2023-02-25T12:24:58.855Z,62.76
2023-02-25T12:27:51.228Z,62.06
2023-02-25T12:30:42.224Z,61.08
2023-02-25T12:33:23.472Z,60.21
2023-02-25T12:36:23.288Z,60.46
2023-02-25T12:39:19.237Z,62.51
2023-02-25T12:41:57.498Z,60.83
2023-02-25T12:44:53.145Z,58.05
2023-02-25T12:47:37.941Z,57.74
2023-02-25T12:50:16.646Z,60.72
2023-02-25T12:53:20.081Z,59.69
2023-02-25T12:55:52.755Z,54.93
2023-02-25T12:58:38.092Z,53.79
2023-02-25T13:01:13.664Z,55.50
2023-02-25T13:04:19.071Z,56.26
2023-02-25T13:06:57.649Z,55.61
2023-02-25T13:09:30.135Z,55.95
2023-02-25T13:12:12.973Z,57.23
2023-02-25T13:15:10.554Z,56.27
2023-02-25T13:17:46.395Z,56.95
2023-02-25T13:20:38.904Z,56.35
2023-02-25T13:23:33.232Z,56.23
2023-02-25T13:26:08.685Z,57.90
2023-02-25T13:28:44.207Z,58.54
2023-02-25T13:31:26.861Z,53.42
2023-02-25T13:34:03.641Z,53.11
2023-02-25T13:36:42.965Z,55.51
2023-02-25T13:39:34.212Z,55.47
2023-02-25T13:42:31.478Z,55.35
2023-02-25T13:45:31.767Z,56.98
2023-02-25T13:48:16.921Z,55.82
2023-02-25T13:50:52.537Z,52.27
2023-02-25T13:53:56.029Z,54.13
2023-02-25T13:56:28.711Z,53.98
2023-02-25T13:59:11.541Z,53.79
2023-02-25T14:01:49.161Z,52.85
2023-02-25T14:04:43.315Z,53.88
2023-02-25T14:07:18.872Z,54.78
2023-02-25T14:10:22.636Z,54.19
2023-02-25T14:13:01.364Z,52.49
2023-02-25T14:15:52.630Z,53.27
2023-02-25T14:18:19.312Z,54.04
2023-02-25T14:20:54.974Z,54.98
2023-02-25T14:23:42.569Z,53.95
2023-02-25T14:26:49.793Z,55.94
2023-02-25T14:29:31.314Z,54.64
2023-02-25T14:32:24.256Z,55.60
2023-02-25T14:35:15.776Z,56.58
2023-02-25T14:38:09.488Z,56.62
2023-02-25T14:40:56.535Z,54.04
2023-02-25T14:43:37.124Z,53.46
2023-02-25T14:46:33.615Z,55.23
2023-02-25T14:49:39.538Z,54.98
2023-02-25T14:52:24.555Z,54.96
2023-02-25T14:55:02.852Z,55.55
2023-02-25T14:57:39.183Z,53.76
2023-02-25T15:00:36.448Z,55.86
2023-02-25T15:03:14.940Z,54.37
2023-02-25T15:06:15.134Z,55.14
2023-02-25T15:09:02.996Z,53.79
2023-02-25T15:11:53.727Z,53.11
2023-02-25T15:14:38.883Z,52.50
2023-02-25T15:17:11.574Z,55.10
2023-02-25T15:19:51.541Z,55.00
2023-02-25T15:22:23.920Z,54.44
2023-02-25T15:24:52.264Z,55.38
2023-02-25T15:27:36.774Z,54.48
2023-02-25T15:30:17.396Z,54.94
2023-02-25T15:33:00.278Z,53.41
2023-02-25T15:35:54.827Z,55.38
2023-02-25T15:38:47.850Z,56.29
2023-02-25T15:41:26.674Z,55.70
2023-02-25T15:43:57.855Z,56.69
2023-02-25T15:46:36.858Z,55.67
2023-02-25T15:49:12.425Z,55.12
2023-02-25T15:51:46.850Z,54.16
2023-02-25T15:54:33.256Z,54.21
2023-02-25T15:57:03.192Z,55.18
2023-02-25T15:59:50.448Z,55.89
2023-02-25T16:02:29.131Z,55.88
2023-02-25T16:05:02.153Z,56.19
2023-02-25T16:07:33.328Z,55.18
2023-02-25T16:10:07.034Z,57.69
2023-02-25T16:12:34.428Z,57.20
2023-02-25T16:15:02.941Z,55.84
2023-02-25T16:17:34.226Z,53.76
2023-02-25T16:20:19.529Z,54.42
2023-02-25T16:22:48.294Z,55.07
2023-02-25T16:25:26.323Z,55.32
2023-02-25T16:27:59.005Z,55.89
2023-02-25T16:31:04.034Z,54.51
2023-02-25T16:33:57.535Z,55.09
2023-02-25T16:36:50.358Z,55.70
2023-02-25T16:39:23.656Z,55.73
2023-02-25T16:41:52.313Z,55.63
2023-02-25T16:44:23.020Z,55.92
2023-02-25T16:46:52.885Z,56.80
2023-02-25T16:49:43.101Z,57.60
2023-02-25T16:52:18.359Z,57.63
2023-02-25T16:54:47.101Z,58.73
2023-02-25T16:57:21.869Z,58.57
2023-02-25T16:59:50.712Z,58.86
2023-02-25T17:02:17.225Z,58.77
2023-02-25T17:04:49.766Z,58.61
2023-02-25T17:07:18.064Z,59.35
2023-02-25T17:10:04.954Z,59.70
2023-02-25T17:12:47.523Z,60.78
2023-02-25T17:15:19.448Z,60.17
2023-02-25T17:17:48.697Z,61.16
2023-02-25T17:20:23.669Z,60.01
2023-02-25T17:22:51.917Z,60.72
2023-02-25T17:25:19.873Z,61.02
2023-02-25T17:27:50.217Z,61.13
2023-02-25T17:30:42.665Z,62.14
2023-02-25T17:33:29.124Z,62.05
2023-02-25T17:35:59.521Z,63.07
2023-02-25T17:38:29.098Z,63.24
2023-02-25T17:40:57.313Z,63.32
2023-02-25T17:43:26.407Z,63.93
2023-02-25T17:46:03.574Z,63.48
2023-02-25T17:48:33.066Z,63.56
2023-02-25T17:51:08.193Z,64.05
2023-02-25T17:53:50.475Z,64.74
2023-02-25T17:56:22.732Z,64.62
2023-02-25T17:58:51.539Z,64.90
2023-02-25T18:01:23.055Z,64.86
2023-02-25T18:03:51.085Z,65.07
2023-02-25T18:06:44.877Z,65.80
2023-02-25T18:09:37.412Z,66.17
2023-02-25T18:12:07.524Z,66.60
2023-02-25T18:14:40.230Z,66.79
2023-02-25T18:17:25.789Z,67.51
2023-02-25T18:19:56.350Z,67.99
2023-02-25T18:22:29.379Z,68.47
2023-02-25T18:24:58.601Z,68.19
2023-02-25T18:27:32.333Z,68.53
2023-02-25T18:30:13.973Z,68.07
2023-02-25T18:32:40.613Z,68.59
2023-02-25T18:35:07.614Z,68.47
2023-02-25T18:37:34.479Z,68.41
2023-02-25T18:40:01.026Z,68.54
2023-02-25T18:42:27.696Z,68.63
2023-02-25T18:44:54.342Z,69.15
2023-02-25T18:47:20.812Z,69.28
2023-02-25T18:49:48.746Z,69.65
2023-02-25T18:52:23.549Z,69.40
2023-02-25T18:54:50.066Z,69.63
2023-02-25T18:57:25.644Z,69.84
2023-02-25T18:59:53.130Z,70.83
2023-02-25T19:02:28.160Z,71.89
2023-02-25T19:04:55.476Z,72.71
2023-02-25T19:07:25.477Z,73.26
2023-02-25T19:09:52.750Z,73.85
2023-02-25T19:12:20.550Z,74.14
2023-02-25T19:14:50.162Z,74.51
2023-02-25T19:17:17.020Z,75.09
2023-02-25T19:19:46.683Z,75.25
2023-02-25T19:22:15.714Z,76.26
2023-02-25T19:24:45.482Z,76.90
2023-02-25T19:27:20.310Z,76.77
2023-02-25T19:29:51.327Z,77.19
2023-02-25T19:32:19.170Z,77.46
2023-02-25T19:34:47.008Z,77.67
2023-02-25T19:37:15.250Z,77.76
2023-02-25T19:39:42.359Z,77.70
2023-02-25T19:42:10.496Z,78.33
2023-02-25T19:44:37.860Z,77.98
2023-02-25T19:47:05.333Z,78.19
2023-02-25T19:49:32.692Z,77.97
2023-02-25T19:52:00.182Z,78.94
2023-02-25T19:54:26.687Z,78.98
2023-02-25T19:56:53.191Z,79.63
2023-02-25T19:59:19.749Z,79.19
2023-02-25T20:01:47.225Z,79.70
2023-02-25T20:04:13.809Z,79.75
2023-02-25T20:06:40.300Z,80.26
2023-02-25T20:09:09.729Z,80.38
2023-02-25T20:11:36.599Z,80.54
2023-02-25T20:14:04.979Z,80.68
2023-02-25T20:16:32.365Z,80.69
2023-02-25T20:18:59.036Z,80.85
2023-02-25T20:21:26.358Z,80.85
2023-02-25T20:23:53.247Z,80.88
2023-02-25T20:26:23.059Z,80.74
2023-02-25T20:28:53.067Z,81.59
2023-02-25T20:31:21.252Z,82.02
2023-02-25T20:33:49.624Z,82.11
2023-02-25T20:36:29.601Z,82.80
2023-02-25T20:39:17.232Z,82.68
2023-02-25T20:41:45.794Z,83.13
2023-02-25T20:44:13.165Z,83.08
2023-02-25T20:46:41.117Z,83.26
2023-02-25T20:49:12.129Z,83.84
2023-02-25T20:51:38.931Z,83.84
2023-02-25T20:54:05.798Z,84.04
2023-02-25T20:56:34.444Z,84.39
2023-02-25T20:59:00.924Z,84.58
2023-02-25T21:01:27.760Z,84.58
2023-02-25T21:03:54.449Z,84.80
2023-02-25T21:06:25.741Z,85.03
2023-02-25T21:08:53.641Z,84.77
2023-02-25T21:11:21.720Z,85.46
2023-02-25T21:13:48.247Z,85.68
2023-02-25T21:16:15.746Z,85.63
2023-02-25T21:18:46.043Z,85.62
2023-02-25T21:21:14.650Z,86.01
2023-02-25T21:23:42.059Z,86.48
2023-02-25T21:26:10.879Z,86.13
2023-02-25T21:28:38.643Z,86.46
2023-02-25T21:31:09.463Z,86.99
2023-02-25T21:33:37.588Z,86.84
2023-02-25T21:36:05.356Z,87.05
2023-02-25T21:38:31.939Z,87.11
2023-02-25T21:41:05.310Z,87.15
2023-02-25T21:43:31.878Z,87.27
2023-02-25T21:46:01.200Z,87.36
2023-02-25T21:48:29.051Z,87.14
2023-02-25T21:50:55.849Z,87.54
2023-02-25T21:53:23.327Z,87.50
2023-02-25T21:55:49.802Z,87.75
2023-02-25T21:58:16.340Z,87.95
2023-02-25T22:00:42.872Z,87.90
2023-02-25T22:03:12.235Z,88.13
2023-02-25T22:05:39.342Z,88.50
2023-02-25T22:08:06.435Z,88.72
2023-02-25T22:10:36.363Z,88.56
2023-02-25T22:13:02.931Z,89.07
2023-02-25T22:15:29.895Z,89.08
2023-02-25T22:17:56.412Z,89.37
2023-02-25T22:20:22.942Z,89.29
2023-02-25T22:22:49.492Z,89.90
2023-02-25T22:25:16.245Z,89.96
2023-02-25T22:27:42.962Z,89.80
2023-02-25T22:30:10.190Z,89.70
2023-02-25T22:32:37.435Z,89.83
2023-02-25T22:35:04.770Z,90.18
2023-02-25T22:37:34.349Z,90.18
2023-02-25T22:40:00.854Z,90.27
2023-02-25T22:42:27.438Z,90.30
2023-02-25T22:44:54.047Z,90.48
2023-02-25T22:47:20.626Z,90.34
2023-02-25T22:49:47.089Z,90.24
2023-02-25T22:52:13.660Z,90.11
2023-02-25T22:54:40.142Z,89.84
2023-02-25T22:57:06.628Z,90.05
2023-02-25T22:59:33.109Z,89.87
2023-02-25T23:01:59.881Z,90.20
2023-02-25T23:04:27.330Z,89.96
2023-02-25T23:06:55.726Z,89.24
2023-02-25T23:09:22.297Z,89.69
2023-02-25T23:11:48.848Z,89.24
2023-02-25T23:14:15.476Z,89.37
2023-02-25T23:16:44.702Z,89.56
2023-02-25T23:19:15.589Z,89.93
2023-02-25T23:21:42.518Z,89.59
2023-02-25T23:24:10.315Z,89.52
2023-02-25T23:26:39.903Z,89.05
2023-02-25T23:29:10.657Z,89.37
2023-02-25T23:31:46.787Z,89.07
2023-02-25T23:34:17.883Z,89.74
2023-02-25T23:36:45.171Z,89.24
2023-02-25T23:39:13.732Z,89.06
2023-02-25T23:41:40.269Z,89.04
2023-02-25T23:44:09.199Z,89.41
2023-02-25T23:46:37.112Z,89.14
2023-02-25T23:49:06.899Z,89.26
2023-02-25T23:51:34.354Z,89.54
2023-02-25T23:54:05.413Z,89.61
2023-02-25T23:56:32.842Z,89.32
2023-02-25T23:58:59.485Z,89.06
